Time;durP1;ratioP1;P1;durP2;ratioP2;P2;SDS_P1;SDS_P2;PMS_P1;PMS_P2;Temp;Humidity;BMP_temperature;BMP_pressure;BME280_temperature;BME280_humidity;BME280_pressure;Samples;Min_cycle;Max_cycle;Signal;HPM_P1;HPM_P2
2022/02/07 00:01:32;;;;;;;1.20;0.28;;;9.70;76.90;;;;;;2294840;55;20964;-74
2022/02/07 00:04:02;;;;;;;0.60;0.30;;;9.70;76.90;;;;;;2287138;55;20961;-75
2022/02/07 00:06:29;;;;;;;0.43;0.20;;;9.70;76.80;;;;;;2287382;56;21084;-75
2022/02/07 00:08:55;;;;;;;0.30;0.17;;;9.70;76.80;;;;;;2287227;56;21437;-75
2022/02/07 00:11:21;;;;;;;2.30;0.20;;;9.80;76.70;;;;;;2286889;56;21032;-75
2022/02/07 00:13:48;;;;;;;0.60;0.20;;;9.80;76.10;;;;;;2287530;56;20965;-75
2022/02/07 00:16:15;;;;;;;0.82;0.20;;;9.70;75.40;;;;;;2285414;54;21006;-75
2022/02/07 00:18:41;;;;;;;0.90;0.30;;;9.70;75.10;;;;;;2289894;55;21041;-75
2022/02/07 00:21:07;;;;;;;1.77;0.40;;;9.60;74.80;;;;;;2274392;55;20961;-75
2022/02/07 00:23:33;;;;;;;0.52;0.30;;;9.60;74.70;;;;;;2287562;55;21042;-75
2022/02/07 00:26:00;;;;;;;1.20;0.40;;;9.60;74.60;;;;;;2263499;55;21005;-75
2022/02/07 00:28:26;;;;;;;1.23;0.50;;;9.50;74.40;;;;;;2289964;54;21041;-75
2022/02/07 00:30:52;;;;;;;1.23;0.30;;;9.50;74.30;;;;;;2282164;55;21530;-77
2022/02/07 00:33:19;;;;;;;0.52;0.22;;;9.40;73.80;;;;;;2279723;55;20980;-78
2022/02/07 00:35:45;;;;;;;2.75;0.30;;;9.30;73.20;;;;;;2287981;56;20984;-75
2022/02/07 00:38:17;;;;;;;1.90;0.47;;;9.20;72.80;;;;;;2287211;56;20937;-77
2022/02/07 00:43:41;;;;;;;0.82;0.20;;;9.00;72.30;;;;;;2266263;56;21025;-75
2022/02/07 00:46:12;;;;;;;1.12;0.32;;;8.90;72.20;;;;;;2288283;56;21005;-76
2022/02/07 00:48:39;;;;;;;2.75;0.45;;;8.80;72.20;;;;;;2287787;56;20960;-74
2022/02/07 00:51:05;;;;;;;1.15;0.30;;;8.70;72.40;;;;;;2327297;55;21029;-74
2022/02/07 00:53:33;;;;;;;2.47;0.37;;;8.60;72.50;;;;;;2278438;55;20997;-75
2022/02/07 00:56:00;;;;;;;0.60;0.30;;;8.50;72.60;;;;;;2382320;54;20905;-74
2022/02/07 00:58:26;;;;;;;0.32;0.20;;;8.40;72.60;;;;;;2288505;56;21521;-78
2022/02/07 01:00:52;;;;;;;1.08;0.30;;;8.30;72.70;;;;;;2288952;56;21037;-74
2022/02/07 01:03:20;;;;;;;2.40;0.22;;;8.30;72.90;;;;;;2290645;56;21040;-77
2022/02/07 01:05:46;;;;;;;1.27;0.30;;;8.20;73.00;;;;;;2290433;56;21693;-74
2022/02/07 01:08:14;;;;;;;0.98;0.28;;;8.20;73.10;;;;;;2320406;55;21816;-76
2022/02/07 01:10:58;;;;;;;0.25;0.20;;;8.10;73.20;;;;;;2290337;56;20912;-76
2022/02/07 01:13:50;;;;;;;2.45;0.30;;;8.10;73.20;;;;;;2292453;55;21058;-75
2022/02/07 01:16:45;;;;;;;0.43;0.20;;;8.10;73.40;;;;;;2298270;55;21486;-75
2022/02/07 01:22:17;;;;;;;0.32;0.20;;;8.00;73.40;;;;;;2336753;55;21397;-77
2022/02/07 01:47:28;;;;;;;1.85;0.68;;;7.90;74.30;;;;;;2327872;55;20994;-76
2022/02/07 01:50:30;;;;;;;2.92;1.00;;;7.90;74.40;;;;;;2286305;55;21005;-75
2022/02/07 01:55:46;;;;;;;2.55;0.70;;;7.90;74.40;;;;;;2289767;55;20957;-77
2022/02/07 01:58:13;;;;;;;1.08;0.47;;;7.90;74.40;;;;;;2287325;54;20981;-77
2022/02/07 02:00:40;;;;;;;0.77;0.40;;;7.90;74.50;;;;;;2316458;55;20964;-76
2022/02/07 02:03:10;;;;;;;1.83;0.40;;;7.90;74.40;;;;;;2290254;56;21060;-75
2022/02/07 02:05:52;;;;;;;0.73;0.30;;;7.90;74.40;;;;;;2292230;55;21741;-76
2022/02/07 02:08:19;;;;;;;0.97;0.27;;;8.00;74.30;;;;;;2289559;55;21486;-74
2022/02/07 02:10:49;;;;;;;0.52;0.30;;;7.90;74.30;;;;;;2290013;56;20989;-75
2022/02/07 02:13:20;;;;;;;1.20;0.30;;;8.00;74.30;;;;;;2323718;55;21021;-76
2022/02/07 02:15:58;;;;;;;0.60;0.30;;;7.90;74.30;;;;;;2439431;54;21431;-75
2022/02/07 02:19:03;;;;;;;1.37;0.30;;;8.00;74.20;;;;;;2289839;55;20968;-76
2022/02/07 02:35:04;;;;;;;0.55;0.25;;;8.00;73.50;;;;;;2287850;55;21000;-76
2022/02/07 02:38:22;;;;;;;1.12;0.40;;;7.90;73.20;;;;;;2478948;54;20992;-76
2022/02/07 02:46:23;;;;;;;0.55;0.30;;;7.80;72.90;;;;;;2295505;55;21413;-75
2022/02/07 02:48:50;;;;;;;0.25;0.20;;;7.80;72.90;;;;;;2265445;56;21021;-75
2022/02/07 02:51:16;;;;;;;1.05;0.30;;;7.70;72.80;;;;;;2521985;55;20961;-76
2022/02/07 02:53:43;;;;;;;0.40;0.20;;;7.70;73.00;;;;;;2307739;55;21395;-75
2022/02/07 02:56:12;;;;;;;0.57;0.22;;;7.70;73.10;;;;;;2294719;55;21532;-75
2022/02/07 02:58:38;;;;;;;2.12;0.30;;;7.70;73.10;;;;;;2287909;56;20949;-76
2022/02/07 03:01:05;;;;;;;0.88;0.30;;;7.60;73.10;;;;;;2287799;55;21453;-75
2022/02/07 03:03:31;;;;;;;0.60;0.17;;;7.60;73.20;;;;;;2287363;56;20979;-76
2022/02/07 03:05:58;;;;;;;1.17;0.43;;;7.60;73.30;;;;;;2287762;56;21012;-75
2022/02/07 03:08:25;;;;;;;1.37;0.30;;;7.60;73.40;;;;;;2287530;56;20997;-75
2022/02/07 03:11:05;;;;;;;0.88;0.30;;;7.60;73.50;;;;;;2337215;54;20957;-76
2022/02/07 03:13:45;;;;;;;1.62;0.40;;;7.60;73.50;;;;;;2287602;56;21807;-75
2022/02/07 03:19:01;;;;;;;0.73;0.40;;;7.60;73.30;;;;;;2287998;56;21413;-75
2022/02/07 03:21:27;;;;;;;2.33;0.50;;;7.60;74.10;;;;;;2484267;54;21510;-75
2022/02/07 03:23:54;;;;;;;1.52;0.40;;;7.60;73.30;;;;;;2287957;55;20961;-75
2022/02/07 03:26:20;;;;;;;1.15;0.45;;;7.50;73.10;;;;;;2294179;55;22041;-75
2022/02/07 03:28:48;;;;;;;2.90;0.50;;;7.50;73.10;;;;;;2288001;56;21383;-75
2022/02/07 03:31:18;;;;;;;1.45;0.45;;;7.50;73.10;;;;;;2304936;54;20978;-76
2022/02/07 03:33:44;;;;;;;2.22;0.50;;;7.50;73.10;;;;;;2287690;56;21001;-75
2022/02/07 03:36:13;;;;;;;2.17;0.47;;;7.50;73.30;;;;;;2287741;56;20952;-76
2022/02/07 03:38:39;;;;;;;1.48;0.40;;;7.50;73.30;;;;;;2289097;55;21498;-75
2022/02/07 03:41:05;;;;;;;1.45;0.50;;;7.50;73.50;;;;;;2284417;55;21425;-76
2022/02/07 03:43:33;;;;;;;2.15;0.60;;;7.50;73.60;;;;;;2287091;55;21599;-75
2022/02/07 03:46:00;;;;;;;3.15;0.52;;;7.40;73.50;;;;;;2287287;56;21414;-75
2022/02/07 03:48:26;;;;;;;4.03;0.90;;;7.50;73.60;;;;;;2384548;54;21029;-76
2022/02/07 03:50:53;;;;;;;3.50;0.60;;;7.40;73.60;;;;;;2301775;55;21028;-75
2022/02/07 03:53:19;;;;;;;2.50;0.77;;;7.50;73.80;;;;;;2425320;54;22054;-75
2022/02/07 03:55:48;;;;;;;3.30;0.60;;;7.50;73.80;;;;;;2500568;54;20993;-76
2022/02/07 03:58:20;;;;;;;3.70;0.80;;;7.50;74.50;;;;;;2310950;55;21016;-75
2022/02/07 04:00:48;;;;;;;2.87;0.90;;;7.50;73.80;;;;;;2399954;54;20988;-75
2022/02/07 04:03:16;;;;;;;2.30;0.65;;;7.50;73.90;;;;;;2287508;56;20977;-75
2022/02/07 04:05:55;;;;;;;3.33;0.80;;;7.50;73.90;;;;;;2289551;55;21034;-74
2022/02/07 04:08:27;;;;;;;4.35;0.80;;;7.50;74.00;;;;;;2286531;55;21473;-76
2022/02/07 04:11:15;;;;;;;4.72;0.90;;;7.50;73.90;;;;;;2383699;55;21016;-75
2022/02/07 04:13:48;;;;;;;4.60;0.98;;;7.60;74.00;;;;;;2317041;55;20981;-75
2022/02/07 04:16:14;;;;;;;4.60;0.95;;;7.60;74.80;;;;;;2290794;55;20944;-75
2022/02/07 04:22:09;;;;;;;3.25;0.93;;;7.60;73.70;;;;;;2424974;55;20901;-75
2022/02/07 04:24:35;;;;;;;3.35;0.80;;;7.50;73.10;;;;;;2420587;55;20948;-75
2022/02/07 04:27:01;;;;;;;1.05;0.52;;;7.50;72.40;;;;;;2265679;56;20948;-75
2022/02/07 04:29:29;;;;;;;2.30;0.40;;;7.40;71.70;;;;;;2286948;55;21000;-75
2022/02/07 04:31:55;;;;;;;1.30;0.47;;;7.30;71.50;;;;;;2287746;56;21048;-75
2022/02/07 04:34:22;;;;;;;0.93;0.40;;;7.20;71.30;;;;;;2287300;56;20956;-74
2022/02/07 04:36:54;;;;;;;1.83;0.50;;;7.10;71.40;;;;;;2522181;55;21464;-75
2022/02/07 04:39:27;;;;;;;0.75;0.35;;;7.00;71.50;;;;;;2287208;55;21457;-75
2022/02/07 04:41:55;;;;;;;1.83;0.70;;;7.00;71.70;;;;;;2344718;55;20973;-75
2022/02/07 04:44:31;;;;;;;0.70;0.30;;;6.90;71.70;;;;;;2288328;55;21078;-75
2022/02/07 04:51:43;;;;;;;0.80;0.40;;;6.80;71.80;;;;;;2402052;55;21468;-76
2022/02/07 04:54:20;;;;;;;1.73;0.40;;;6.70;71.80;;;;;;2521696;54;21418;-76
2022/02/07 05:00:42;;;;;;;2.97;0.35;;;6.60;72.00;;;;;;2369154;54;20956;-75
2022/02/07 05:03:20;;;;;;;1.62;0.40;;;6.50;71.90;;;;;;2289823;55;21004;-75
2022/02/07 05:14:03;;;;;;;0.70;0.30;;;6.30;71.80;;;;;;2289549;56;21429;-75
2022/02/07 05:16:31;;;;;;;1.75;0.50;;;6.30;71.90;;;;;;2289452;55;21053;-75
2022/02/07 05:19:03;;;;;;;2.97;0.85;;;6.20;72.10;;;;;;2289741;55;21037;-75
2022/02/07 05:21:29;;;;;;;3.10;0.68;;;6.20;72.10;;;;;;2291275;54;21644;-76
2022/02/07 05:23:56;;;;;;;3.72;1.02;;;6.20;72.20;;;;;;2282755;55;21956;-75
2022/02/07 05:26:22;;;;;;;2.20;0.88;;;6.10;72.10;;;;;;2312308;55;21005;-74
2022/02/07 05:28:50;;;;;;;2.25;1.00;;;6.10;72.10;;;;;;2284824;55;21076;-74
2022/02/07 05:31:19;;;;;;;2.87;0.90;;;6.10;72.20;;;;;;2289643;55;20957;-76
2022/02/07 05:33:48;;;;;;;1.87;0.80;;;6.00;72.10;;;;;;2285571;55;21096;-75
2022/02/07 05:36:14;;;;;;;2.20;0.80;;;6.00;72.20;;;;;;2273414;55;21034;-75
2022/02/07 05:38:45;;;;;;;4.25;1.00;;;6.00;72.30;;;;;;2289959;55;22498;-75
2022/02/07 05:41:12;;;;;;;1.55;0.70;;;5.90;72.30;;;;;;2285082;55;20981;-74
2022/02/07 05:43:41;;;;;;;1.77;0.68;;;5.90;72.40;;;;;;2288926;56;21481;-75
2022/02/07 05:46:07;;;;;;;1.55;0.70;;;5.90;72.40;;;;;;2333464;55;21004;-75
2022/02/07 05:48:34;;;;;;;3.47;0.88;;;5.90;72.30;;;;;;2288945;56;20937;-75
2022/02/07 05:51:01;;;;;;;2.33;0.80;;;5.80;72.20;;;;;;2294841;55;20929;-75
2022/02/07 05:53:27;;;;;;;1.87;0.73;;;5.80;72.20;;;;;;2288180;55;20977;-76
2022/02/07 05:55:53;;;;;;;2.15;0.85;;;5.80;72.10;;;;;;2291377;55;20937;-75
2022/02/07 05:58:19;;;;;;;1.23;0.57;;;5.70;72.00;;;;;;2290001;55;20937;-75
2022/02/07 06:00:46;;;;;;;1.92;0.73;;;5.70;72.00;;;;;;2465783;55;22044;-75
2022/02/07 06:03:13;;;;;;;4.57;0.98;;;5.70;71.80;;;;;;2289389;55;21446;-75
2022/02/07 06:05:39;;;;;;;3.08;1.08;;;5.60;71.60;;;;;;2287825;55;21037;-75
2022/02/07 06:08:05;;;;;;;2.95;1.00;;;5.60;71.60;;;;;;2288532;55;20940;-75
2022/02/07 06:10:32;;;;;;;1.83;0.70;;;5.50;71.50;;;;;;2361714;55;20965;-75
2022/02/07 06:12:58;;;;;;;2.40;0.90;;;5.50;71.50;;;;;;2290370;55;20969;-75
2022/02/07 06:15:25;;;;;;;3.30;1.17;;;5.40;71.40;;;;;;2288745;55;20952;-75
2022/02/07 06:17:55;;;;;;;5.28;1.58;;;5.40;71.40;;;;;;2289288;56;20973;-75
2022/02/07 06:20:22;;;;;;;4.10;1.80;;;5.30;71.30;;;;;;2289031;56;20956;-75
2022/02/07 06:22:48;;;;;;;4.75;2.03;;;5.30;71.20;;;;;;2289337;56;21012;-76
2022/02/07 06:25:17;;;;;;;4.35;2.08;;;5.20;71.10;;;;;;2289844;56;20949;-75
2022/02/07 06:27:43;;;;;;;6.15;2.20;;;5.20;71.10;;;;;;2292293;55;21028;-75
2022/02/07 06:30:13;;;;;;;5.20;2.35;;;5.10;71.00;;;;;;2317357;54;21028;-75
2022/02/07 06:32:39;;;;;;;6.60;2.17;;;5.10;71.00;;;;;;2285019;55;20963;-76
2022/02/07 06:35:06;;;;;;;4.70;1.80;;;5.00;70.90;;;;;;2289454;56;20957;-75
2022/02/07 06:37:33;;;;;;;6.03;1.75;;;5.00;71.00;;;;;;2289033;56;21045;-75
2022/02/07 06:39:59;;;;;;;4.75;1.62;;;4.90;71.20;;;;;;2289878;56;20945;-74
2022/02/07 06:42:25;;;;;;;5.18;1.90;;;4.90;71.60;;;;;;2267034;56;20937;-75
2022/02/07 06:44:52;;;;;;;5.15;1.80;;;4.90;71.90;;;;;;2289870;56;20954;-75
2022/02/07 06:47:18;;;;;;;5.10;1.90;;;4.80;72.20;;;;;;2320825;54;20937;-75
2022/02/07 06:49:44;;;;;;;7.70;2.70;;;4.80;72.50;;;;;;2294471;55;20974;-75
2022/02/07 06:52:12;;;;;;;5.53;2.72;;;4.80;72.80;;;;;;2282739;55;20945;-75
2022/02/07 06:54:38;;;;;;;6.70;2.80;;;4.80;73.00;;;;;;2282687;54;21739;-75
2022/02/07 06:57:05;;;;;;;4.35;2.42;;;4.80;73.30;;;;;;2293242;55;20936;-76
2022/02/07 06:59:37;;;;;;;6.18;2.35;;;4.90;73.60;;;;;;2308922;55;21816;-74
2022/02/07 07:02:04;;;;;;;3.65;1.80;;;4.90;73.80;;;;;;2289355;55;21917;-74
2022/02/07 07:04:31;;;;;;;4.00;2.03;;;4.90;74.00;;;;;;2289283;56;21318;-74
2022/02/07 07:06:57;;;;;;;4.68;2.08;;;4.90;74.00;;;;;;2289635;56;20997;-75
2022/02/07 07:09:26;;;;;;;8.85;2.87;;;5.00;74.20;;;;;;2289575;56;20960;-75
2022/02/07 07:12:01;;;;;;;6.95;3.58;;;5.00;74.10;;;;;;2289594;56;20897;-75
2022/02/07 07:14:38;;;;;;;7.90;3.20;;;5.00;74.20;;;;;;2288865;55;20965;-75
2022/02/07 07:17:05;;;;;;;5.62;2.50;;;5.10;74.40;;;;;;2291952;55;20973;-75
2022/02/07 07:19:31;;;;;;;6.65;3.15;;;5.10;74.50;;;;;;2285445;55;20948;-75
2022/02/07 07:21:59;;;;;;;9.82;4.55;;;5.10;74.50;;;;;;2289557;56;21832;-75
2022/02/07 07:24:27;;;;;;;10.35;4.80;;;5.10;74.50;;;;;;2289064;55;21833;-75
2022/02/07 07:26:54;;;;;;;10.32;4.53;;;5.20;74.70;;;;;;2290030;56;21008;-76
2022/02/07 07:29:29;;;;;;;9.85;4.20;;;5.20;74.70;;;;;;2288437;55;20979;-75
2022/02/07 07:32:01;;;;;;;9.10;4.45;;;5.30;74.80;;;;;;2452559;55;20985;-75
2022/02/07 07:34:36;;;;;;;8.82;4.72;;;5.30;74.80;;;;;;2390577;54;20964;-74
2022/02/07 07:37:02;;;;;;;7.55;4.25;;;5.30;74.70;;;;;;2267495;56;21013;-75
2022/02/07 07:39:31;;;;;;;7.20;3.87;;;5.40;74.70;;;;;;2331866;55;21509;-74
2022/02/07 07:41:57;;;;;;;7.53;2.90;;;5.40;74.70;;;;;;2293313;55;20949;-75
2022/02/07 07:44:29;;;;;;;6.47;2.42;;;5.40;74.70;;;;;;2401065;55;20993;-75
2022/02/07 07:47:09;;;;;;;4.87;2.03;;;5.50;74.70;;;;;;2283261;55;20973;-74
2022/02/07 07:49:46;;;;;;;4.45;1.83;;;5.50;74.60;;;;;;2293414;56;21777;-75
2022/02/07 07:52:17;;;;;;;3.37;1.50;;;5.50;74.60;;;;;;2286591;55;20943;-75
2022/02/07 07:54:57;;;;;;;6.47;1.92;;;5.60;74.70;;;;;;2378246;55;20964;-76
2022/02/07 08:02:56;;;;;;;4.18;1.50;;;5.60;74.70;;;;;;2288745;55;21028;-75
2022/02/07 08:05:42;;;;;;;4.70;1.83;;;5.70;74.80;;;;;;2295355;55;20965;-75
2022/02/07 08:12:26;;;;;;;4.95;1.35;;;5.70;74.70;;;;;;2289850;55;21508;-75
2022/02/07 08:14:52;;;;;;;4.43;1.70;;;5.70;74.50;;;;;;2289143;55;20997;-75
2022/02/07 08:17:27;;;;;;;3.58;1.50;;;5.70;74.60;;;;;;2313657;55;21250;-75
2022/02/07 08:19:54;;;;;;;4.10;1.62;;;5.80;74.70;;;;;;2287583;55;20969;-75
2022/02/07 08:22:23;;;;;;;4.65;1.73;;;5.80;74.80;;;;;;2450459;55;20948;-75
2022/02/07 08:24:56;;;;;;;8.75;2.47;;;5.80;75.00;;;;;;2289132;56;20988;-75
2022/02/07 08:27:24;;;;;;;6.07;2.00;;;5.80;75.10;;;;;;2297248;55;20964;-75
2022/02/07 08:29:53;;;;;;;3.83;1.90;;;5.90;75.50;;;;;;2304814;55;20977;-75
2022/02/07 08:32:20;;;;;;;6.40;1.48;;;5.90;75.70;;;;;;2288582;55;20949;-75
2022/02/07 08:34:47;;;;;;;5.45;1.42;;;6.00;76.00;;;;;;2289871;56;20953;-75
2022/02/07 08:37:14;;;;;;;5.05;1.73;;;6.00;76.20;;;;;;2289436;56;20965;-75
2022/02/07 08:39:42;;;;;;;5.12;2.22;;;6.00;76.30;;;;;;2289676;56;20939;-75
2022/02/07 08:42:09;;;;;;;5.50;2.33;;;6.10;76.50;;;;;;2288065;55;20951;-75
2022/02/07 08:44:36;;;;;;;4.85;2.22;;;6.20;76.70;;;;;;2349737;54;21336;-75
2022/02/07 08:47:04;;;;;;;5.90;2.35;;;6.40;77.00;;;;;;2289671;56;21007;-75
2022/02/07 08:49:31;;;;;;;12.95;4.07;;;6.40;77.10;;;;;;2358187;54;20953;-75
2022/02/07 08:51:57;;;;;;;15.57;4.90;;;6.50;77.30;;;;;;2290958;55;20925;-75
2022/02/07 08:54:26;;;;;;;16.65;4.80;;;6.60;77.30;;;;;;2335350;55;20979;-75
2022/02/07 08:57:30;;;;;;;10.68;3.95;;;6.60;77.10;;;;;;2472119;54;21067;-75
2022/02/07 09:00:06;;;;;;;8.85;3.00;;;6.70;76.40;;;;;;2515979;54;20996;-75
2022/02/07 09:02:55;;;;;;;8.60;3.75;;;6.80;76.40;;;;;;2289298;56;21532;-75
2022/02/07 09:05:49;;;;;;;8.65;4.03;;;6.90;76.40;;;;;;2292304;56;21001;-74
2022/02/07 09:08:25;;;;;;;7.03;3.20;;;6.90;76.30;;;;;;2289514;56;21016;-75
2022/02/07 09:10:56;;;;;;;7.28;3.20;;;7.00;76.30;;;;;;2289716;56;20993;-75
2022/02/07 09:13:29;;;;;;;4.43;2.35;;;7.10;76.10;;;;;;2368204;55;21797;-75
2022/02/07 09:20:15;;;;;;;3.60;1.70;;;7.20;75.90;;;;;;2289753;56;20952;-75
2022/02/07 09:22:44;;;;;;;3.25;1.33;;;7.20;75.50;;;;;;2289443;56;20962;-75
2022/02/07 09:25:10;;;;;;;3.67;1.30;;;7.30;75.40;;;;;;2289838;55;20966;-75
2022/02/07 09:27:37;;;;;;;4.30;1.42;;;7.30;75.40;;;;;;2271834;55;20953;-75
2022/02/07 09:30:06;;;;;;;7.43;1.48;;;7.40;75.60;;;;;;2289249;56;21077;-75
2022/02/07 09:32:36;;;;;;;4.82;1.55;;;7.40;75.60;;;;;;2288058;55;21006;-75
2022/02/07 09:35:02;;;;;;;4.12;1.30;;;7.40;75.30;;;;;;2418747;55;21464;-75
2022/02/07 09:37:29;;;;;;;3.35;1.17;;;7.50;75.20;;;;;;2325850;55;20997;-74
2022/02/07 09:39:55;;;;;;;4.62;1.65;;;7.50;75.00;;;;;;2296157;55;21103;-75
2022/02/07 09:42:21;;;;;;;6.35;2.20;;;7.50;74.90;;;;;;2289365;56;20957;-75
2022/02/07 09:44:53;;;;;;;6.97;2.65;;;7.60;74.90;;;;;;2289290;56;21501;-76
2022/02/07 09:47:20;;;;;;;7.75;2.75;;;7.60;74.50;;;;;;2344809;55;20927;-76
2022/02/07 09:49:46;;;;;;;8.20;2.80;;;7.60;74.50;;;;;;2286703;55;20977;-76
2022/02/07 09:52:13;;;;;;;7.50;3.42;;;7.60;74.30;;;;;;2333749;55;21042;-75
2022/02/07 09:54:40;;;;;;;7.22;3.50;;;7.60;74.20;;;;;;2288726;55;20937;-75
2022/02/07 09:57:07;;;;;;;5.93;2.83;;;7.60;74.20;;;;;;2289353;56;21017;-75
2022/02/07 09:59:34;;;;;;;6.72;3.15;;;7.60;74.30;;;;;;2289112;56;20968;-74
2022/02/07 10:02:03;;;;;;;7.47;3.50;;;7.70;74.40;;;;;;2289678;56;20929;-75
2022/02/07 10:04:41;;;;;;;6.53;3.10;;;7.70;74.20;;;;;;2307405;55;21389;-74
2022/02/07 10:07:31;;;;;;;8.55;3.33;;;7.70;74.40;;;;;;2289596;56;21025;-75
2022/02/07 10:10:29;;;;;;;8.60;3.55;;;7.70;74.40;;;;;;2289223;56;21347;-76
2022/02/07 10:17:54;;;;;;;7.18;3.03;;;7.80;74.70;;;;;;2286650;55;20946;-74
2022/02/07 10:20:54;;;;;;;8.07;3.53;;;7.80;74.70;;;;;;2288796;56;23279;-74
2022/02/07 10:35:36;;;;;;;9.63;2.30;;;8.00;74.90;;;;;;2335494;55;20969;-75
2022/02/07 10:38:14;;;;;;;7.25;2.87;;;8.00;74.90;;;;;;2276952;55;21009;-75
2022/02/07 10:40:55;;;;;;;7.75;2.67;;;8.00;74.70;;;;;;2284034;55;20984;-76
2022/02/07 10:43:57;;;;;;;8.40;2.45;;;8.00;74.40;;;;;;2291072;55;21018;-75
2022/02/07 10:46:31;;;;;;;10.18;2.30;;;8.00;74.50;;;;;;2289360;56;21011;-75
2022/02/07 10:48:57;;;;;;;7.85;2.15;;;8.00;74.60;;;;;;2288787;55;20996;-76
2022/02/07 10:51:28;;;;;;;8.75;2.35;;;8.00;74.70;;;;;;2289065;56;21021;-75
2022/02/07 10:54:07;;;;;;;4.47;1.70;;;8.10;74.80;;;;;;2311135;54;21009;-75
2022/02/07 10:56:37;;;;;;;6.43;1.87;;;8.10;74.80;;;;;;2287631;55;20978;-76
2022/02/07 10:59:08;;;;;;;4.40;1.75;;;8.10;75.20;;;;;;2266679;56;21727;-76
2022/02/07 11:02:32;;;;;;;7.03;2.05;;;8.10;75.50;;;;;;2289448;56;20993;-75
2022/02/07 11:05:04;;;;;;;8.70;2.55;;;8.10;75.40;;;;;;2287852;56;20944;-75
2022/02/07 11:07:32;;;;;;;9.35;2.78;;;8.20;75.30;;;;;;2286720;56;20992;-75
2022/02/07 11:15:33;;;;;;;5.30;1.85;;;8.30;75.00;;;;;;2318109;55;20948;-76
2022/02/07 11:18:23;;;;;;;5.35;1.62;;;8.30;75.00;;;;;;2389167;55;20952;-75
2022/02/07 11:21:18;;;;;;;6.35;1.90;;;8.30;74.90;;;;;;2286994;56;21885;-75
2022/02/07 11:23:53;;;;;;;4.30;1.50;;;8.40;74.40;;;;;;2286659;55;20965;-75
2022/02/07 11:26:48;;;;;;;3.80;1.73;;;8.40;75.20;;;;;;2290550;55;21005;-75
2022/02/07 11:29:48;;;;;;;5.18;1.73;;;8.40;75.10;;;;;;2276896;55;21025;-75
2022/02/07 11:35:01;;;;;;;15.02;7.93;;;8.50;75.00;;;;;;2293549;55;21064;-75
2022/02/07 11:37:27;;;;;;;8.13;3.92;;;8.60;74.20;;;;;;2379860;55;21052;-75
2022/02/07 11:39:54;;;;;;;8.85;3.03;;;8.60;76.20;;;;;;2408731;55;20956;-76
2022/02/07 11:42:24;;;;;;;5.78;2.22;;;8.70;77.20;;;;;;2287429;55;21033;-75
2022/02/07 11:45:12;;;;;;;6.65;2.58;;;8.80;78.30;;;;;;2303573;55;20972;-76
2022/02/07 11:47:38;;;;;;;6.45;2.37;;;9.00;77.50;;;;;;2283248;55;20991;-76
2022/02/07 11:50:08;;;;;;;5.32;2.58;;;9.10;77.80;;;;;;2290558;55;20997;-75
2022/02/07 11:52:48;;;;;;;6.93;2.58;;;9.20;77.30;;;;;;2283259;55;21873;-75
2022/02/07 11:55:24;;;;;;;7.07;2.50;;;9.30;76.30;;;;;;2264958;56;21469;-76
2022/02/07 11:58:00;;;;;;;5.22;1.60;;;9.30;76.20;;;;;;2321595;55;20968;-75
2022/02/07 12:00:31;;;;;;;5.43;1.80;;;9.30;76.30;;;;;;2409364;55;21453;-76
2022/02/07 12:03:05;;;;;;;5.30;1.80;;;9.40;76.20;;;;;;2286761;56;20965;-75
2022/02/07 12:05:31;;;;;;;6.57;2.17;;;9.50;75.90;;;;;;2394161;55;20980;-76
2022/02/07 12:08:06;;;;;;;5.07;1.80;;;9.50;76.00;;;;;;2286836;54;21617;-75
2022/02/07 12:10:37;;;;;;;5.90;1.50;;;9.50;75.30;;;;;;2285437;55;20992;-75
2022/02/07 12:13:08;;;;;;;5.65;1.70;;;9.60;75.50;;;;;;2287142;55;21604;-75
2022/02/07 12:15:46;;;;;;;4.32;1.60;;;9.60;75.10;;;;;;2327289;55;21049;-75
2022/02/07 12:18:23;;;;;;;8.35;2.47;;;9.60;74.80;;;;;;2287303;56;20944;-74
2022/02/07 12:21:14;;;;;;;8.90;2.15;;;9.60;73.80;;;;;;2286854;56;21099;-74
2022/02/07 12:23:40;;;;;;;4.87;1.73;;;9.60;74.10;;;;;;2385503;55;20978;-76
2022/02/07 12:26:14;;;;;;;5.15;1.95;;;9.50;73.90;;;;;;2295629;55;20969;-76
2022/02/07 12:31:20;;;;;;;7.68;2.10;;;9.50;73.60;;;;;;2257503;56;21346;-75
2022/02/07 12:34:10;;;;;;;4.07;1.75;;;9.50;73.40;;;;;;2376969;55;20956;-75
2022/02/07 12:36:37;;;;;;;7.78;1.87;;;9.40;73.40;;;;;;2287097;56;20996;-75
2022/02/07 12:39:13;;;;;;;6.68;1.83;;;9.40;73.90;;;;;;2286867;56;20964;-75
2022/02/07 12:41:39;;;;;;;5.85;2.40;;;9.40;73.60;;;;;;2289421;56;21005;-75
2022/02/07 12:44:07;;;;;;;8.10;2.90;;;9.40;74.20;;;;;;2283513;55;20965;-76
2022/02/07 12:46:34;;;;;;;11.43;3.78;;;9.40;74.30;;;;;;2311030;55;20956;-76
2022/02/07 12:49:09;;;;;;;12.57;4.40;;;9.40;74.40;;;;;;2286561;56;20984;-75
2022/02/07 12:51:42;;;;;;;19.83;6.45;;;9.40;74.40;;;;;;2285928;56;21612;-74
2022/02/07 12:54:09;;;;;;;23.25;8.18;;;9.50;74.70;;;;;;2286040;56;21013;-74
2022/02/07 12:56:37;;;;;;;39.10;14.57;;;9.50;74.80;;;;;;2286090;55;21871;-75
2022/02/07 12:59:06;;;;;;;31.67;13.62;;;9.50;75.00;;;;;;2285967;55;21032;-76
2022/02/07 13:01:36;;;;;;;16.92;7.03;;;9.50;74.60;;;;;;2312161;55;20993;-75
2022/02/07 13:04:11;;;;;;;12.68;5.12;;;9.60;74.50;;;;;;2313679;55;21100;-75
2022/02/07 13:06:46;;;;;;;18.30;8.65;;;9.60;74.40;;;;;;2285855;56;20936;-75
2022/02/07 13:09:33;;;;;;;12.60;6.70;;;9.60;74.30;;;;;;2286465;55;20996;-74
2022/02/07 13:12:19;;;;;;;10.90;5.20;;;9.60;73.60;;;;;;2285832;56;21589;-75
2022/02/07 13:14:46;;;;;;;9.07;4.25;;;9.60;74.20;;;;;;2289412;55;21016;-74
2022/02/07 13:17:13;;;;;;;7.90;2.85;;;9.60;74.40;;;;;;2284988;54;21343;-75
2022/02/07 13:19:42;;;;;;;6.87;2.37;;;9.70;74.30;;;;;;2264481;55;1467358;-75
2022/02/07 13:22:10;;;;;;;5.78;1.90;;;9.70;74.20;;;;;;2287080;56;20953;-75
2022/02/07 13:24:37;;;;;;;6.70;1.90;;;9.70;74.00;;;;;;2315950;55;21891;-74
2022/02/07 13:27:08;;;;;;;6.20;1.92;;;9.70;73.90;;;;;;2322582;55;20989;-74
2022/02/07 13:29:41;;;;;;;7.28;2.35;;;9.70;73.80;;;;;;2322661;54;20969;-74
2022/02/07 13:32:07;;;;;;;5.50;2.30;;;9.60;73.80;;;;;;2287013;56;21545;-75
2022/02/07 13:34:35;;;;;;;5.10;1.60;;;9.70;74.00;;;;;;2289592;55;21553;-76
2022/02/07 13:37:43;;;;;;;3.72;1.30;;;9.70;73.80;;;;;;2284078;55;21016;-75
2022/02/07 13:40:26;;;;;;;5.78;1.70;;;9.70;73.80;;;;;;2287231;56;21025;-74
2022/02/07 13:42:54;;;;;;;7.03;1.98;;;9.70;73.70;;;;;;2309207;55;20928;-75
2022/02/07 13:45:22;;;;;;;6.28;1.48;;;9.80;74.10;;;;;;2287545;56;20949;-75
2022/02/07 13:47:50;;;;;;;4.25;1.50;;;9.80;74.20;;;;;;2288708;55;21872;-74
2022/02/07 13:50:17;;;;;;;7.20;1.87;;;9.80;74.30;;;;;;2300631;55;21036;-75
2022/02/07 13:52:45;;;;;;;7.97;1.70;;;9.80;74.20;;;;;;2315744;55;20966;-74
2022/02/07 13:55:20;;;;;;;4.22;1.62;;;9.90;75.00;;;;;;2277125;55;20968;-74
2022/02/07 13:58:49;;;;;;;9.25;1.65;;;9.90;75.10;;;;;;2288797;55;20986;-75
2022/02/07 14:01:18;;;;;;;5.80;1.83;;;10.10;73.70;;;;;;2377031;55;20972;-75
2022/02/07 14:03:48;;;;;;;4.72;1.60;;;10.20;75.60;;;;;;2286409;55;20961;-75
2022/02/07 14:06:19;;;;;;;6.25;2.03;;;10.30;76.00;;;;;;2304277;55;20956;-74
2022/02/07 14:08:51;;;;;;;5.55;1.70;;;10.50;75.70;;;;;;2285779;55;20997;-75
2022/02/07 14:11:28;;;;;;;7.35;1.52;;;10.60;75.40;;;;;;2286504;56;21497;-74
2022/02/07 14:14:01;;;;;;;7.00;1.55;;;10.70;75.10;;;;;;2287336;56;20976;-75
2022/02/07 14:16:28;;;;;;;5.72;1.60;;;10.90;75.70;;;;;;2286746;55;21421;-75
2022/02/07 14:18:55;;;;;;;6.00;1.85;;;11.00;75.80;;;;;;2287016;55;21022;-74
2022/02/07 14:21:24;;;;;;;7.53;1.60;;;11.10;76.30;;;;;;2340349;55;21056;-74
2022/02/07 14:23:51;;;;;;;4.78;1.37;;;11.20;75.00;;;;;;2286067;56;21640;-75
2022/02/07 14:26:40;;;;;;;6.05;1.60;;;11.20;74.50;;;;;;2274946;55;20948;-75
2022/02/07 14:29:06;;;;;;;5.03;1.70;;;11.30;74.40;;;;;;2290065;55;22020;-76
2022/02/07 14:31:33;;;;;;;4.05;1.30;;;11.30;74.30;;;;;;2369055;55;20972;-75
2022/02/07 14:33:59;;;;;;;5.12;1.37;;;11.40;73.80;;;;;;2286878;55;21012;-74
2022/02/07 14:36:28;;;;;;;6.10;1.73;;;11.40;73.50;;;;;;2343647;55;21039;-74
2022/02/07 14:38:54;;;;;;;4.03;1.60;;;11.40;73.30;;;;;;2290742;55;20961;-75
2022/02/07 14:41:21;;;;;;;7.45;1.62;;;11.40;73.00;;;;;;2307724;55;20984;-75
2022/02/07 14:43:49;;;;;;;8.05;1.70;;;11.40;72.90;;;;;;2359910;54;21041;-74
2022/02/07 14:46:22;;;;;;;4.28;1.25;;;11.40;72.80;;;;;;2516341;54;20970;-75
2022/02/07 14:49:10;;;;;;;6.18;1.60;;;11.40;72.60;;;;;;2281154;55;21009;-75
2022/02/07 14:51:40;;;;;;;7.22;1.40;;;11.40;70.90;;;;;;2385387;55;21841;-74
2022/02/07 14:54:09;;;;;;;4.20;1.27;;;11.40;72.30;;;;;;2328740;55;20982;-75
2022/02/07 14:56:36;;;;;;;6.32;1.50;;;11.40;72.00;;;;;;2286143;55;21025;-74
2022/02/07 14:59:03;;;;;;;4.87;1.20;;;11.40;72.50;;;;;;2387162;54;21506;-74
2022/02/07 15:01:29;;;;;;;5.15;1.35;;;11.40;72.00;;;;;;2286762;56;20964;-74
2022/02/07 15:03:55;;;;;;;5.00;1.80;;;11.40;71.90;;;;;;2285470;55;20953;-74
2022/02/07 15:06:22;;;;;;;6.78;1.73;;;11.30;71.70;;;;;;2286640;56;20964;-72
2022/02/07 15:08:49;;;;;;;5.95;1.83;;;11.30;71.70;;;;;;2285940;55;21128;-75
2022/02/07 15:11:17;;;;;;;4.72;1.50;;;11.30;71.40;;;;;;2295391;55;21002;-74
2022/02/07 15:13:46;;;;;;;4.32;1.48;;;11.30;71.30;;;;;;2256853;56;20965;-73